PWSweather.com
Personal Weather Stations
Station Observations
KCACAMAR4
Temple And Ponderosa, Camarillo, CA 93010

Temple And PonderosaCamarillo, CA 93010

Lat: 34.23113300000001, Lon: -119.02988600000003

Elevation: 174

Station Type: Davis Vantage Pro2

http://www.camarilloweather.com

High Low Average
Temperature 64.7°F18.2°C 50.7°F10.4°C 57.3°F14.1°C
Dew Point 57.9°F14.4°C 48.0°F8.9°C 53.8°F12.1°C
Winds 5.0 mph 8.0 kmh Calm Calm 2.0 mph SE3.2 kmh SE
Wind Gusts 11.0 mph17.7 kmh -- 4.0 mph6.4 kmh
Humidity 95% 70% 89%
Pressure 30.23 in1023.7 mb 30.09 in1019.0 mb -
Precipitation 0.04 in1.0 mm - -
Hour Temp Dew Point Humidity Winds Wind Gusts Pressure Precip Precip Rate Daily Precip Total
12:00 AM 51.8°F11.0°C 49.0°F9.4°C 90% 1.0 mph E1.6 kmh E 3.0 mph4.8 kmh 30.15 in1021.0 mb 0.00 in0.0 mm 0.00 in0.0 mm 0.00 in0.0 mm
12:05 AM 51.7°F10.9°C 48.9°F9.4°C 90% 1.0 mph ENE1.6 kmh ENE 3.0 mph4.8 kmh 30.15 in1021.0 mb 0.00 in0.0 mm 0.00 in0.0 mm 0.00 in0.0 mm
12:10 AM 51.7°F10.9°C 48.9°F9.4°C 90% 1.0 mph ENE1.6 kmh ENE 2.0 mph3.2 kmh 30.15 in1021.0 mb 0.00 in0.0 mm 0.00 in0.0 mm 0.00 in0.0 mm
12:15 AM 51.6°F10.9°C 48.8°F9.3°C 90% 1.0 mph ENE1.6 kmh ENE 3.0 mph4.8 kmh 30.15 in1021.0 mb 0.00 in0.0 mm 0.00 in0.0 mm 0.00 in0.0 mm
12:20 AM 51.5°F10.8°C 48.7°F9.3°C 90% 1.0 mph ENE1.6 kmh ENE 3.0 mph4.8 kmh 30.15 in1021.0 mb 0.00 in0.0 mm 0.00 in0.0 mm 0.00 in0.0 mm
12:25 AM 51.4°F10.8°C 48.3°F9.1°C 89% 1.0 mph ENE1.6 kmh ENE 2.0 mph3.2 kmh 30.15 in1021.0 mb 0.00 in0.0 mm 0.00 in0.0 mm 0.00 in0.0 mm
12:30 AM 51.2°F10.7°C 48.1°F8.9°C 89% Calm Calm 2.0 mph3.2 kmh 30.15 in1021.0 mb 0.00 in0.0 mm 0.00 in0.0 mm 0.00 in0.0 mm
12:35 AM 51.1°F10.6°C 48.3°F9.1°C 90% Calm Calm 4.0 mph6.4 kmh 30.15 in1021.0 mb 0.00 in0.0 mm 0.00 in0.0 mm 0.00 in0.0 mm
12:40 AM 50.9°F10.5°C 48.1°F8.9°C 90% 1.0 mph ENE1.6 kmh ENE 4.0 mph6.4 kmh 30.15 in1021.0 mb 0.00 in0.0 mm 0.00 in0.0 mm 0.00 in0.0 mm
12:45 AM 50.8°F10.4°C 48.0°F8.9°C 90% 2.0 mph ENE3.2 kmh ENE 4.0 mph6.4 kmh 30.15 in1021.0 mb 0.00 in0.0 mm 0.00 in0.0 mm 0.00 in0.0 mm
12:50 AM 50.8°F10.4°C 48.0°F8.9°C 90% 1.0 mph ENE1.6 kmh ENE 4.0 mph6.4 kmh 30.16 in1021.3 mb 0.00 in0.0 mm 0.00 in0.0 mm 0.00 in0.0 mm
12:55 AM 50.7°F10.4°C 48.2°F9.0°C 91% 2.0 mph ENE3.2 kmh ENE 3.0 mph4.8 kmh 30.15 in1021.0 mb 0.00 in0.0 mm 0.00 in0.0 mm 0.00 in0.0 mm
01:00 AM 50.7°F10.4°C 48.2°F9.0°C 91% 2.0 mph E3.2 kmh E 4.0 mph6.4 kmh 30.15 in1021.0 mb 0.00 in0.0 mm 0.00 in0.0 mm 0.00 in0.0 mm
01:05 AM 50.7°F10.4°C 48.2°F9.0°C 91% 2.0 mph E3.2 kmh E 4.0 mph6.4 kmh 30.15 in1021.0 mb 0.00 in0.0 mm 0.00 in0.0 mm 0.00 in0.0 mm
01:10 AM 50.7°F10.4°C 48.2°F9.0°C 91% 2.0 mph ENE3.2 kmh ENE 3.0 mph4.8 kmh 30.16 in1021.3 mb 0.00 in0.0 mm 0.00 in0.0 mm 0.00 in0.0 mm
01:15 AM 50.7°F10.4°C 48.2°F9.0°C 91% 2.0 mph NE3.2 kmh NE 3.0 mph4.8 kmh 30.16 in1021.3 mb 0.00 in0.0 mm 0.00 in0.0 mm 0.00 in0.0 mm
01:20 AM 50.7°F10.4°C 48.2°F9.0°C 91% 1.0 mph NE1.6 kmh NE 3.0 mph4.8 kmh 30.16 in1021.3 mb 0.00 in0.0 mm 0.00 in0.0 mm 0.00 in0.0 mm
01:35 AM 50.9°F10.5°C 48.7°F9.3°C 92% 1.0 mph E1.6 kmh E 2.0 mph3.2 kmh 30.16 in1021.3 mb 0.00 in0.0 mm 0.00 in0.0 mm 0.00 in0.0 mm
01:40 AM 50.9°F10.5°C 48.7°F9.3°C 92% 1.0 mph E1.6 kmh E 3.0 mph4.8 kmh 30.16 in1021.3 mb 0.00 in0.0 mm 0.00 in0.0 mm 0.00 in0.0 mm
01:45 AM 51.0°F10.6°C 48.8°F9.3°C 92% 1.0 mph E1.6 kmh E 4.0 mph6.4 kmh 30.15 in1021.0 mb 0.00 in0.0 mm 0.00 in0.0 mm 0.00 in0.0 mm
01:50 AM 51.2°F10.7°C 48.7°F9.3°C 91% 2.0 mph E3.2 kmh E 5.0 mph8.0 kmh 30.15 in1021.0 mb 0.00 in0.0 mm 0.00 in0.0 mm 0.00 in0.0 mm
01:55 AM 51.2°F10.7°C 48.7°F9.3°C 91% 3.0 mph E4.8 kmh E 6.0 mph9.7 kmh 30.15 in1021.0 mb 0.00 in0.0 mm 0.00 in0.0 mm 0.00 in0.0 mm
02:00 AM 51.3°F10.7°C 48.8°F9.3°C 91% 3.0 mph ENE4.8 kmh ENE 6.0 mph9.7 kmh 30.15 in1021.0 mb 0.00 in0.0 mm 0.00 in0.0 mm 0.00 in0.0 mm
02:05 AM 51.3°F10.7°C 48.8°F9.3°C 91% 3.0 mph ENE4.8 kmh ENE 6.0 mph9.7 kmh 30.15 in1021.0 mb 0.00 in0.0 mm 0.00 in0.0 mm 0.00 in0.0 mm
02:10 AM 51.3°F10.7°C 48.8°F9.3°C 91% 3.0 mph ENE4.8 kmh ENE 5.0 mph8.0 kmh 30.15 in1021.0 mb 0.00 in0.0 mm 0.00 in0.0 mm 0.00 in0.0 mm
02:15 AM 51.3°F10.7°C 48.8°F9.3°C 91% 3.0 mph ENE4.8 kmh ENE 5.0 mph8.0 kmh 30.15 in1021.0 mb 0.00 in0.0 mm 0.00 in0.0 mm 0.00 in0.0 mm
02:20 AM 51.3°F10.7°C 48.8°F9.3°C 91% 3.0 mph ENE4.8 kmh ENE 7.0 mph11.3 kmh 30.15 in1021.0 mb 0.00 in0.0 mm 0.00 in0.0 mm 0.00 in0.0 mm
02:25 AM 51.3°F10.7°C 48.8°F9.3°C 91% 3.0 mph ENE4.8 kmh ENE 7.0 mph11.3 kmh 30.15 in1021.0 mb 0.00 in0.0 mm 0.00 in0.0 mm 0.00 in0.0 mm
02:30 AM 51.4°F10.8°C 48.9°F9.4°C 91% 3.0 mph ENE4.8 kmh ENE 5.0 mph8.0 kmh 30.15 in1021.0 mb 0.00 in0.0 mm 0.00 in0.0 mm 0.00 in0.0 mm
02:35 AM 51.4°F10.8°C 48.9°F9.4°C 91% 3.0 mph ENE4.8 kmh ENE 6.0 mph9.7 kmh 30.15 in1021.0 mb 0.00 in0.0 mm 0.00 in0.0 mm 0.00 in0.0 mm
02:40 AM 51.4°F10.8°C 48.9°F9.4°C 91% 3.0 mph ENE4.8 kmh ENE 6.0 mph9.7 kmh 30.15 in1021.0 mb 0.00 in0.0 mm 0.00 in0.0 mm 0.00 in0.0 mm
02:45 AM 51.4°F10.8°C 48.9°F9.4°C 91% 3.0 mph ENE4.8 kmh ENE 5.0 mph8.0 kmh 30.15 in1021.0 mb 0.00 in0.0 mm 0.00 in0.0 mm 0.00 in0.0 mm
02:50 AM 51.4°F10.8°C 48.9°F9.4°C 91% 3.0 mph ENE4.8 kmh ENE 5.0 mph8.0 kmh 30.15 in1021.0 mb 0.00 in0.0 mm 0.00 in0.0 mm 0.00 in0.0 mm
02:55 AM 51.4°F10.8°C 48.9°F9.4°C 91% 2.0 mph NE3.2 kmh NE 5.0 mph8.0 kmh 30.16 in1021.3 mb 0.00 in0.0 mm 0.00 in0.0 mm 0.00 in0.0 mm
03:00 AM 51.5°F10.8°C 49.0°F9.4°C 91% 2.0 mph NE3.2 kmh NE 3.0 mph4.8 kmh 30.16 in1021.3 mb 0.00 in0.0 mm 0.00 in0.0 mm 0.00 in0.0 mm
03:05 AM 51.5°F10.8°C 49.0°F9.4°C 91% 1.0 mph NE1.6 kmh NE 3.0 mph4.8 kmh 30.16 in1021.3 mb 0.00 in0.0 mm 0.00 in0.0 mm 0.00 in0.0 mm
03:10 AM 51.5°F10.8°C 49.0°F9.4°C 91% 1.0 mph ENE1.6 kmh ENE 3.0 mph4.8 kmh 30.16 in1021.3 mb 0.00 in0.0 mm 0.00 in0.0 mm 0.00 in0.0 mm
03:15 AM 51.6°F10.9°C 49.1°F9.5°C 91% 1.0 mph ENE1.6 kmh ENE 5.0 mph8.0 kmh 30.15 in1021.0 mb 0.00 in0.0 mm 0.00 in0.0 mm 0.00 in0.0 mm
03:20 AM 51.9°F11.1°C 49.6°F9.8°C 92% 2.0 mph E3.2 kmh E 6.0 mph9.7 kmh 30.15 in1021.0 mb 0.00 in0.0 mm 0.00 in0.0 mm 0.00 in0.0 mm
03:25 AM 52.0°F11.1°C 49.7°F9.8°C 92% 3.0 mph ENE4.8 kmh ENE 6.0 mph9.7 kmh 30.15 in1021.0 mb 0.00 in0.0 mm 0.00 in0.0 mm 0.00 in0.0 mm
03:30 AM 52.1°F11.2°C 49.6°F9.8°C 91% 3.0 mph ENE4.8 kmh ENE 5.0 mph8.0 kmh 30.16 in1021.3 mb 0.00 in0.0 mm 0.00 in0.0 mm 0.00 in0.0 mm
03:35 AM 52.1°F11.2°C 49.6°F9.8°C 91% 3.0 mph ENE4.8 kmh ENE 7.0 mph11.3 kmh 30.15 in1021.0 mb 0.00 in0.0 mm 0.00 in0.0 mm 0.00 in0.0 mm
03:40 AM 52.1°F11.2°C 49.3°F9.6°C 90% 3.0 mph ENE4.8 kmh ENE 9.0 mph14.5 kmh 30.14 in1020.7 mb 0.00 in0.0 mm 0.00 in0.0 mm 0.00 in0.0 mm
03:45 AM 52.1°F11.2°C 49.3°F9.6°C 90% 4.0 mph E6.4 kmh E 10.0 mph16.1 kmh 30.13 in1020.3 mb 0.00 in0.0 mm 0.00 in0.0 mm 0.00 in0.0 mm
03:50 AM 52.1°F11.2°C 49.6°F9.8°C 91% 5.0 mph E8.0 kmh E 11.0 mph17.7 kmh 30.11 in1019.6 mb 0.00 in0.0 mm 0.00 in0.0 mm 0.00 in0.0 mm
03:55 AM 52.4°F11.3°C 50.1°F10.1°C 92% 5.0 mph ENE8.0 kmh ENE 11.0 mph17.7 kmh 30.12 in1020.0 mb 0.00 in0.0 mm 0.00 in0.0 mm 0.00 in0.0 mm
04:00 AM 52.5°F11.4°C 50.2°F10.1°C 92% 5.0 mph NE8.0 kmh NE 9.0 mph14.5 kmh 30.12 in1020.0 mb 0.00 in0.0 mm 0.00 in0.0 mm 0.00 in0.0 mm
04:05 AM 52.7°F11.5°C 50.7°F10.4°C 93% 5.0 mph ENE8.0 kmh ENE 8.0 mph12.9 kmh 30.12 in1020.0 mb 0.00 in0.0 mm 0.00 in0.0 mm 0.00 in0.0 mm
04:10 AM 53.0°F11.7°C 51.0°F10.6°C 93% 4.0 mph NE6.4 kmh NE 8.0 mph12.9 kmh 30.10 in1019.3 mb 0.00 in0.0 mm 0.00 in0.0 mm 0.00 in0.0 mm
04:15 AM 53.3°F11.8°C 51.3°F10.7°C 93% 4.0 mph NE6.4 kmh NE 9.0 mph14.5 kmh 30.09 in1019.0 mb 0.00 in0.0 mm 0.00 in0.0 mm 0.00 in0.0 mm
04:20 AM 53.3°F11.8°C 51.0°F10.6°C 92% 4.0 mph NE6.4 kmh NE 9.0 mph14.5 kmh 30.11 in1019.6 mb 0.00 in0.0 mm 0.00 in0.0 mm 0.00 in0.0 mm
04:25 AM 53.4°F11.9°C 51.1°F10.6°C 92% 4.0 mph N6.4 kmh N 8.0 mph12.9 kmh 30.11 in1019.6 mb 0.00 in0.0 mm 0.00 in0.0 mm 0.00 in0.0 mm
04:30 AM 53.5°F11.9°C 51.2°F10.7°C 92% 4.0 mph NE6.4 kmh NE 9.0 mph14.5 kmh 30.10 in1019.3 mb 0.00 in0.0 mm 0.00 in0.0 mm 0.00 in0.0 mm
04:35 AM 53.7°F12.1°C 51.4°F10.8°C 92% 4.0 mph NE6.4 kmh NE 9.0 mph14.5 kmh 30.11 in1019.6 mb 0.00 in0.0 mm 0.00 in0.0 mm 0.00 in0.0 mm
04:40 AM 53.9°F12.2°C 51.3°F10.7°C 91% 4.0 mph NE6.4 kmh NE 9.0 mph14.5 kmh 30.11 in1019.6 mb 0.00 in0.0 mm 0.00 in0.0 mm 0.00 in0.0 mm
04:45 AM 54.0°F12.2°C 51.4°F10.8°C 91% 4.0 mph NE6.4 kmh NE 9.0 mph14.5 kmh 30.12 in1020.0 mb 0.00 in0.0 mm 0.00 in0.0 mm 0.00 in0.0 mm
04:50 AM 54.0°F12.2°C 51.4°F10.8°C 91% 4.0 mph NNE6.4 kmh NNE 5.0 mph8.0 kmh 30.14 in1020.7 mb 0.00 in0.0 mm 0.00 in0.0 mm 0.00 in0.0 mm
04:55 AM 54.1°F12.3°C 51.5°F10.8°C 91% 3.0 mph NW4.8 kmh NW 5.0 mph8.0 kmh 30.14 in1020.7 mb 0.00 in0.0 mm 0.00 in0.0 mm 0.00 in0.0 mm
05:00 AM 54.1°F12.3°C 51.5°F10.8°C 91% 2.0 mph WSW3.2 kmh WSW 4.0 mph6.4 kmh 30.14 in1020.7 mb 0.00 in0.0 mm 0.00 in0.0 mm 0.00 in0.0 mm
05:05 AM 54.1°F12.3°C 51.5°F10.8°C 91% 1.0 mph WSW1.6 kmh WSW 3.0 mph4.8 kmh 30.14 in1020.7 mb 0.00 in0.0 mm 0.00 in0.0 mm 0.00 in0.0 mm
05:10 AM 54.1°F12.3°C 51.5°F10.8°C 91% 1.0 mph WSW1.6 kmh WSW 4.0 mph6.4 kmh 30.15 in1021.0 mb 0.00 in0.0 mm 0.00 in0.0 mm 0.00 in0.0 mm
05:15 AM 54.1°F12.3°C 51.5°F10.8°C 91% 2.0 mph WSW3.2 kmh WSW 5.0 mph8.0 kmh 30.15 in1021.0 mb 0.00 in0.0 mm 0.00 in0.0 mm 0.00 in0.0 mm
05:20 AM 54.0°F12.2°C 51.4°F10.8°C 91% 2.0 mph WSW3.2 kmh WSW 5.0 mph8.0 kmh 30.15 in1021.0 mb 0.00 in0.0 mm 0.00 in0.0 mm 0.00 in0.0 mm
05:25 AM 53.9°F12.2°C 51.3°F10.7°C 91% 2.0 mph WSW3.2 kmh WSW 4.0 mph6.4 kmh 30.16 in1021.3 mb 0.00 in0.0 mm 0.00 in0.0 mm 0.00 in0.0 mm
05:30 AM 53.9°F12.2°C 51.3°F10.7°C 91% 2.0 mph WSW3.2 kmh WSW 3.0 mph4.8 kmh 30.16 in1021.3 mb 0.00 in0.0 mm 0.00 in0.0 mm 0.00 in0.0 mm
05:35 AM 53.8°F12.1°C 51.2°F10.7°C 91% 1.0 mph SW1.6 kmh SW 3.0 mph4.8 kmh 30.16 in1021.3 mb 0.00 in0.0 mm 0.00 in0.0 mm 0.00 in0.0 mm
05:40 AM 53.6°F12.0°C 51.0°F10.6°C 91% 1.0 mph S1.6 kmh S 4.0 mph6.4 kmh 30.16 in1021.3 mb 0.00 in0.0 mm 0.00 in0.0 mm 0.00 in0.0 mm
05:45 AM 53.5°F11.9°C 50.9°F10.5°C 91% 2.0 mph S3.2 kmh S 4.0 mph6.4 kmh 30.15 in1021.0 mb 0.00 in0.0 mm 0.00 in0.0 mm 0.00 in0.0 mm
05:50 AM 53.3°F11.8°C 50.7°F10.4°C 91% 2.0 mph S3.2 kmh S 5.0 mph8.0 kmh 30.15 in1021.0 mb 0.00 in0.0 mm 0.00 in0.0 mm 0.00 in0.0 mm
05:55 AM 53.1°F11.7°C 50.5°F10.3°C 91% 2.0 mph S3.2 kmh S 5.0 mph8.0 kmh 30.15 in1021.0 mb 0.00 in0.0 mm 0.00 in0.0 mm 0.00 in0.0 mm
06:00 AM 53.0°F11.7°C 50.1°F10.1°C 90% 2.0 mph S3.2 kmh S 4.0 mph6.4 kmh 30.16 in1021.3 mb 0.00 in0.0 mm 0.00 in0.0 mm 0.00 in0.0 mm
06:05 AM 52.8°F11.6°C 49.9°F9.9°C 90% 1.0 mph S1.6 kmh S 2.0 mph3.2 kmh 30.17 in1021.7 mb 0.00 in0.0 mm 0.00 in0.0 mm 0.00 in0.0 mm
06:10 AM 52.6°F11.4°C 49.8°F9.9°C 90% 1.0 mph S1.6 kmh S 2.0 mph3.2 kmh 30.17 in1021.7 mb 0.00 in0.0 mm 0.00 in0.0 mm 0.00 in0.0 mm
06:15 AM 52.4°F11.3°C 49.3°F9.6°C 89% Calm Calm 1.0 mph1.6 kmh 30.17 in1021.7 mb 0.00 in0.0 mm 0.00 in0.0 mm 0.00 in0.0 mm
06:20 AM 52.2°F11.2°C 49.1°F9.5°C 89% Calm Calm 2.0 mph3.2 kmh 30.17 in1021.7 mb 0.00 in0.0 mm 0.00 in0.0 mm 0.00 in0.0 mm
06:25 AM 51.8°F11.0°C 49.0°F9.4°C 90% Calm Calm 4.0 mph6.4 kmh 30.16 in1021.3 mb 0.00 in0.0 mm 0.00 in0.0 mm 0.00 in0.0 mm
06:30 AM 51.7°F10.9°C 49.2°F9.6°C 91% 1.0 mph S1.6 kmh S 4.0 mph6.4 kmh 30.17 in1021.7 mb 0.00 in0.0 mm 0.00 in0.0 mm 0.00 in0.0 mm
06:35 AM 51.6°F10.9°C 49.1°F9.5°C 91% 1.0 mph S1.6 kmh S 2.0 mph3.2 kmh 30.17 in1021.7 mb 0.00 in0.0 mm 0.00 in0.0 mm 0.00 in0.0 mm
06:40 AM 51.5°F10.8°C 49.3°F9.6°C 92% 1.0 mph SE1.6 kmh SE 4.0 mph6.4 kmh 30.17 in1021.7 mb 0.00 in0.0 mm 0.00 in0.0 mm 0.00 in0.0 mm
06:45 AM 51.5°F10.8°C 49.3°F9.6°C 92% 1.0 mph E1.6 kmh E 5.0 mph8.0 kmh 30.16 in1021.3 mb 0.00 in0.0 mm 0.00 in0.0 mm 0.00 in0.0 mm
06:50 AM 51.4°F10.8°C 49.2°F9.6°C 92% 2.0 mph E3.2 kmh E 5.0 mph8.0 kmh 30.17 in1021.7 mb 0.00 in0.0 mm 0.00 in0.0 mm 0.00 in0.0 mm
06:55 AM 51.4°F10.8°C 49.2°F9.6°C 92% 2.0 mph E3.2 kmh E 3.0 mph4.8 kmh 30.17 in1021.7 mb 0.00 in0.0 mm 0.00 in0.0 mm 0.00 in0.0 mm
07:00 AM 51.4°F10.8°C 49.4°F9.7°C 93% 1.0 mph E1.6 kmh E 2.0 mph3.2 kmh 30.17 in1021.7 mb 0.00 in0.0 mm 0.00 in0.0 mm 0.00 in0.0 mm
07:05 AM 51.4°F10.8°C 49.4°F9.7°C 93% 1.0 mph E1.6 kmh E 2.0 mph3.2 kmh 30.18 in1022.0 mb 0.00 in0.0 mm 0.00 in0.0 mm 0.00 in0.0 mm
07:10 AM 51.5°F10.8°C 49.5°F9.7°C 93% 1.0 mph E1.6 kmh E 2.0 mph3.2 kmh 30.18 in1022.0 mb 0.00 in0.0 mm 0.00 in0.0 mm 0.00 in0.0 mm
07:15 AM 51.5°F10.8°C 49.5°F9.7°C 93% 1.0 mph E1.6 kmh E 2.0 mph3.2 kmh 30.18 in1022.0 mb 0.00 in0.0 mm 0.00 in0.0 mm 0.00 in0.0 mm
07:20 AM 51.5°F10.8°C 49.5°F9.7°C 93% 1.0 mph E1.6 kmh E 2.0 mph3.2 kmh 30.18 in1022.0 mb 0.00 in0.0 mm 0.00 in0.0 mm 0.00 in0.0 mm
07:25 AM 51.5°F10.8°C 49.5°F9.7°C 93% 1.0 mph E1.6 kmh E 2.0 mph3.2 kmh 30.18 in1022.0 mb 0.00 in0.0 mm 0.00 in0.0 mm 0.00 in0.0 mm
07:30 AM 51.7°F10.9°C 50.0°F10.0°C 94% 1.0 mph E1.6 kmh E 3.0 mph4.8 kmh 30.18 in1022.0 mb 0.00 in0.0 mm 0.00 in0.0 mm 0.00 in0.0 mm
07:35 AM 52.1°F11.2°C 50.4°F10.2°C 94% 1.0 mph E1.6 kmh E 5.0 mph8.0 kmh 30.19 in1022.4 mb 0.00 in0.0 mm 0.00 in0.0 mm 0.00 in0.0 mm
07:40 AM 52.3°F11.3°C 50.6°F10.3°C 94% 2.0 mph ENE3.2 kmh ENE 5.0 mph8.0 kmh 30.19 in1022.4 mb 0.00 in0.0 mm 0.00 in0.0 mm 0.00 in0.0 mm
07:45 AM 52.5°F11.4°C 50.8°F10.4°C 94% 2.0 mph ENE3.2 kmh ENE 6.0 mph9.7 kmh 30.19 in1022.4 mb 0.00 in0.0 mm 0.00 in0.0 mm 0.00 in0.0 mm
07:50 AM 52.8°F11.6°C 51.1°F10.6°C 94% 3.0 mph ENE4.8 kmh ENE 6.0 mph9.7 kmh 30.19 in1022.4 mb 0.00 in0.0 mm 0.00 in0.0 mm 0.00 in0.0 mm
07:55 AM 52.8°F11.6°C 51.1°F10.6°C 94% 3.0 mph ENE4.8 kmh ENE 6.0 mph9.7 kmh 30.19 in1022.4 mb 0.00 in0.0 mm 0.00 in0.0 mm 0.00 in0.0 mm
08:00 AM 53.0°F11.7°C 51.3°F10.7°C 94% 3.0 mph ENE4.8 kmh ENE 6.0 mph9.7 kmh 30.19 in1022.4 mb 0.00 in0.0 mm 0.00 in0.0 mm 0.00 in0.0 mm
08:05 AM 53.2°F11.8°C 51.5°F10.8°C 94% 3.0 mph ENE4.8 kmh ENE 5.0 mph8.0 kmh 30.19 in1022.4 mb 0.00 in0.0 mm 0.00 in0.0 mm 0.00 in0.0 mm
08:10 AM 53.5°F11.9°C 51.8°F11.0°C 94% 2.0 mph ENE3.2 kmh ENE 8.0 mph12.9 kmh 30.20 in1022.7 mb 0.00 in0.0 mm 0.00 in0.0 mm 0.00 in0.0 mm
08:15 AM 53.7°F12.1°C 52.0°F11.1°C 94% 3.0 mph ENE4.8 kmh ENE 8.0 mph12.9 kmh 30.20 in1022.7 mb 0.00 in0.0 mm 0.00 in0.0 mm 0.00 in0.0 mm
08:20 AM 53.9°F12.2°C 51.9°F11.1°C 93% 3.0 mph NE4.8 kmh NE 5.0 mph8.0 kmh 30.20 in1022.7 mb 0.00 in0.0 mm 0.00 in0.0 mm 0.00 in0.0 mm
08:25 AM 54.1°F12.3°C 52.1°F11.2°C 93% 3.0 mph ENE4.8 kmh ENE 5.0 mph8.0 kmh 30.21 in1023.0 mb 0.00 in0.0 mm 0.00 in0.0 mm 0.00 in0.0 mm
08:30 AM 54.4°F12.4°C 52.4°F11.3°C 93% 3.0 mph ENE4.8 kmh ENE 6.0 mph9.7 kmh 30.21 in1023.0 mb 0.00 in0.0 mm 0.00 in0.0 mm 0.00 in0.0 mm
08:35 AM 54.6°F12.6°C 52.6°F11.4°C 93% 3.0 mph ENE4.8 kmh ENE 6.0 mph9.7 kmh 30.21 in1023.0 mb 0.00 in0.0 mm 0.00 in0.0 mm 0.00 in0.0 mm
08:40 AM 54.9°F12.7°C 52.6°F11.4°C 92% 3.0 mph ENE4.8 kmh ENE 7.0 mph11.3 kmh 30.21 in1023.0 mb 0.00 in0.0 mm 0.00 in0.0 mm 0.00 in0.0 mm
08:45 AM 55.2°F12.9°C 52.9°F11.6°C 92% 3.0 mph ENE4.8 kmh ENE 9.0 mph14.5 kmh 30.22 in1023.4 mb 0.00 in0.0 mm 0.00 in0.0 mm 0.00 in0.0 mm
08:50 AM 55.5°F13.1°C 53.2°F11.8°C 92% 3.0 mph ENE4.8 kmh ENE 9.0 mph14.5 kmh 30.22 in1023.4 mb 0.00 in0.0 mm 0.00 in0.0 mm 0.00 in0.0 mm
08:55 AM 55.8°F13.2°C 53.2°F11.8°C 91% 3.0 mph ENE4.8 kmh ENE 5.0 mph8.0 kmh 30.22 in1023.4 mb 0.00 in0.0 mm 0.00 in0.0 mm 0.00 in0.0 mm
09:00 AM 56.2°F13.4°C 53.6°F12.0°C 91% 3.0 mph ENE4.8 kmh ENE 6.0 mph9.7 kmh 30.23 in1023.7 mb 0.00 in0.0 mm 0.00 in0.0 mm 0.00 in0.0 mm
09:05 AM 56.4°F13.6°C 53.5°F11.9°C 90% 3.0 mph ENE4.8 kmh ENE 7.0 mph11.3 kmh 30.23 in1023.7 mb 0.00 in0.0 mm 0.00 in0.0 mm 0.00 in0.0 mm
09:10 AM 56.6°F13.7°C 53.4°F11.9°C 89% 3.0 mph ENE4.8 kmh ENE 7.0 mph11.3 kmh 30.23 in1023.7 mb 0.00 in0.0 mm 0.00 in0.0 mm 0.00 in0.0 mm
09:15 AM 56.9°F13.8°C 53.7°F12.1°C 89% 3.0 mph ENE4.8 kmh ENE 6.0 mph9.7 kmh 30.23 in1023.7 mb 0.00 in0.0 mm 0.00 in0.0 mm 0.00 in0.0 mm
09:20 AM 57.2°F14.0°C 54.3°F12.4°C 90% 3.0 mph NE4.8 kmh NE 5.0 mph8.0 kmh 30.23 in1023.7 mb 0.00 in0.0 mm 0.00 in0.0 mm 0.00 in0.0 mm
09:25 AM 57.6°F14.2°C 54.7°F12.6°C 90% 3.0 mph NE4.8 kmh NE 5.0 mph8.0 kmh 30.23 in1023.7 mb 0.00 in0.0 mm 0.00 in0.0 mm 0.00 in0.0 mm
09:30 AM 58.0°F14.4°C 54.8°F12.7°C 89% 2.0 mph NE3.2 kmh NE 4.0 mph6.4 kmh 30.23 in1023.7 mb 0.00 in0.0 mm 0.00 in0.0 mm 0.00 in0.0 mm
09:35 AM 58.3°F14.6°C 54.8°F12.7°C 88% 2.0 mph NE3.2 kmh NE 5.0 mph8.0 kmh 30.23 in1023.7 mb 0.00 in0.0 mm 0.00 in0.0 mm 0.00 in0.0 mm
09:40 AM 58.5°F14.7°C 54.6°F12.6°C 87% 2.0 mph NE3.2 kmh NE 5.0 mph8.0 kmh 30.23 in1023.7 mb 0.00 in0.0 mm 0.00 in0.0 mm 0.00 in0.0 mm
09:45 AM 58.7°F14.8°C 55.2°F12.9°C 88% 3.0 mph NE4.8 kmh NE 4.0 mph6.4 kmh 30.23 in1023.7 mb 0.00 in0.0 mm 0.00 in0.0 mm 0.00 in0.0 mm
09:50 AM 59.1°F15.1°C 55.5°F13.1°C 88% 2.0 mph NE3.2 kmh NE 4.0 mph6.4 kmh 30.23 in1023.7 mb 0.00 in0.0 mm 0.00 in0.0 mm 0.00 in0.0 mm
09:55 AM 59.3°F15.2°C 55.7°F13.2°C 88% 2.0 mph ENE3.2 kmh ENE 4.0 mph6.4 kmh 30.23 in1023.7 mb 0.00 in0.0 mm 0.00 in0.0 mm 0.00 in0.0 mm
10:00 AM 59.8°F15.4°C 55.9°F13.3°C 87% 2.0 mph E3.2 kmh E 3.0 mph4.8 kmh 30.22 in1023.4 mb 0.00 in0.0 mm 0.00 in0.0 mm 0.00 in0.0 mm
10:05 AM 60.4°F15.8°C 55.5°F13.1°C 84% 2.0 mph E3.2 kmh E 4.0 mph6.4 kmh 30.22 in1023.4 mb 0.00 in0.0 mm 0.00 in0.0 mm 0.00 in0.0 mm
10:10 AM 61.1°F16.2°C 55.9°F13.3°C 83% 2.0 mph E3.2 kmh E 4.0 mph6.4 kmh 30.22 in1023.4 mb 0.00 in0.0 mm 0.00 in0.0 mm 0.00 in0.0 mm
10:15 AM 61.7°F16.5°C 56.5°F13.6°C 83% 2.0 mph ESE3.2 kmh ESE 3.0 mph4.8 kmh 30.22 in1023.4 mb 0.00 in0.0 mm 0.00 in0.0 mm 0.00 in0.0 mm
10:20 AM 62.3°F16.8°C 56.4°F13.6°C 81% 2.0 mph SE3.2 kmh SE 4.0 mph6.4 kmh 30.22 in1023.4 mb 0.00 in0.0 mm 0.00 in0.0 mm 0.00 in0.0 mm
10:25 AM 62.7°F17.1°C 56.4°F13.6°C 80% 1.0 mph SE1.6 kmh SE 4.0 mph6.4 kmh 30.22 in1023.4 mb 0.00 in0.0 mm 0.00 in0.0 mm 0.00 in0.0 mm
10:30 AM 63.0°F17.2°C 56.7°F13.7°C 80% 2.0 mph SE3.2 kmh SE 4.0 mph6.4 kmh 30.21 in1023.0 mb 0.00 in0.0 mm 0.00 in0.0 mm 0.00 in0.0 mm
10:35 AM 63.2°F17.3°C 56.6°F13.7°C 79% 2.0 mph ESE3.2 kmh ESE 5.0 mph8.0 kmh 30.21 in1023.0 mb 0.00 in0.0 mm 0.00 in0.0 mm 0.00 in0.0 mm
10:40 AM 63.4°F17.4°C 56.4°F13.6°C 78% 2.0 mph ESE3.2 kmh ESE 5.0 mph8.0 kmh 30.21 in1023.0 mb 0.00 in0.0 mm 0.00 in0.0 mm 0.00 in0.0 mm
10:45 AM 63.5°F17.5°C 56.5°F13.6°C 78% 2.0 mph ESE3.2 kmh ESE 4.0 mph6.4 kmh 30.20 in1022.7 mb 0.00 in0.0 mm 0.00 in0.0 mm 0.00 in0.0 mm
10:50 AM 63.7°F17.6°C 56.4°F13.6°C 77% 2.0 mph ESE3.2 kmh ESE 6.0 mph9.7 kmh 30.20 in1022.7 mb 0.00 in0.0 mm 0.00 in0.0 mm 0.00 in0.0 mm
10:55 AM 63.9°F17.7°C 56.2°F13.4°C 76% 3.0 mph SE4.8 kmh SE 7.0 mph11.3 kmh 30.20 in1022.7 mb 0.00 in0.0 mm 0.00 in0.0 mm 0.00 in0.0 mm
11:00 AM 64.1°F17.8°C 55.6°F13.1°C 74% 3.0 mph SE4.8 kmh SE 7.0 mph11.3 kmh 30.20 in1022.7 mb 0.00 in0.0 mm 0.00 in0.0 mm 0.00 in0.0 mm
11:05 AM 64.2°F17.9°C 56.1°F13.4°C 75% 3.0 mph SE4.8 kmh SE 7.0 mph11.3 kmh 30.20 in1022.7 mb 0.00 in0.0 mm 0.00 in0.0 mm 0.00 in0.0 mm
11:10 AM 64.4°F18.0°C 55.6°F13.1°C 73% 3.0 mph ESE4.8 kmh ESE 7.0 mph11.3 kmh 30.20 in1022.7 mb 0.00 in0.0 mm 0.00 in0.0 mm 0.00 in0.0 mm
11:15 AM 64.5°F18.1°C 55.7°F13.2°C 73% 2.0 mph ESE3.2 kmh ESE 4.0 mph6.4 kmh 30.20 in1022.7 mb 0.00 in0.0 mm 0.00 in0.0 mm 0.00 in0.0 mm
11:20 AM 64.6°F18.1°C 56.1°F13.4°C 74% 2.0 mph SE3.2 kmh SE 5.0 mph8.0 kmh 30.19 in1022.4 mb 0.00 in0.0 mm 0.00 in0.0 mm 0.00 in0.0 mm
11:25 AM 64.5°F18.1°C 55.3°F12.9°C 72% 2.0 mph SE3.2 kmh SE 6.0 mph9.7 kmh 30.19 in1022.4 mb 0.00 in0.0 mm 0.00 in0.0 mm 0.00 in0.0 mm
11:30 AM 64.6°F18.1°C 55.7°F13.2°C 73% 2.0 mph SE3.2 kmh SE 6.0 mph9.7 kmh 30.19 in1022.4 mb 0.00 in0.0 mm 0.00 in0.0 mm 0.00 in0.0 mm
11:35 AM 64.7°F18.2°C 55.5°F13.1°C 72% 2.0 mph ESE3.2 kmh ESE 6.0 mph9.7 kmh 30.19 in1022.4 mb 0.00 in0.0 mm 0.00 in0.0 mm 0.00 in0.0 mm
11:40 AM 64.6°F18.1°C 54.6°F12.6°C 70% 2.0 mph E3.2 kmh E 6.0 mph9.7 kmh 30.19 in1022.4 mb 0.00 in0.0 mm 0.00 in0.0 mm 0.00 in0.0 mm
11:45 AM 64.2°F17.9°C 54.6°F12.6°C 71% 2.0 mph E3.2 kmh E 5.0 mph8.0 kmh 30.18 in1022.0 mb 0.00 in0.0 mm 0.00 in0.0 mm 0.00 in0.0 mm
11:50 AM 64.3°F17.9°C 54.7°F12.6°C 71% 3.0 mph E4.8 kmh E 5.0 mph8.0 kmh 30.18 in1022.0 mb 0.00 in0.0 mm 0.00 in0.0 mm 0.00 in0.0 mm
11:55 AM 64.4°F18.0°C 54.8°F12.7°C 71% 2.0 mph E3.2 kmh E 4.0 mph6.4 kmh 30.18 in1022.0 mb 0.00 in0.0 mm 0.00 in0.0 mm 0.00 in0.0 mm
12:00 PM 64.5°F18.1°C 55.3°F12.9°C 72% 2.0 mph SE3.2 kmh SE 4.0 mph6.4 kmh 30.18 in1022.0 mb 0.00 in0.0 mm 0.00 in0.0 mm 0.00 in0.0 mm
12:05 PM 64.5°F18.1°C 55.7°F13.2°C 73% 1.0 mph SSE1.6 kmh SSE 4.0 mph6.4 kmh 30.17 in1021.7 mb 0.00 in0.0 mm 0.00 in0.0 mm 0.00 in0.0 mm
12:10 PM 64.5°F18.1°C 55.7°F13.2°C 73% 1.0 mph ESE1.6 kmh ESE 6.0 mph9.7 kmh 30.17 in1021.7 mb 0.00 in0.0 mm 0.00 in0.0 mm 0.00 in0.0 mm
12:15 PM 64.6°F18.1°C 55.4°F13.0°C 72% 2.0 mph ESE3.2 kmh ESE 6.0 mph9.7 kmh 30.16 in1021.3 mb 0.00 in0.0 mm 0.00 in0.0 mm 0.00 in0.0 mm
12:20 PM 64.7°F18.2°C 55.5°F13.1°C 72% 3.0 mph E4.8 kmh E 4.0 mph6.4 kmh 30.16 in1021.3 mb 0.00 in0.0 mm 0.00 in0.0 mm 0.00 in0.0 mm
12:25 PM 64.7°F18.2°C 55.5°F13.1°C 72% 2.0 mph E3.2 kmh E 3.0 mph4.8 kmh 30.16 in1021.3 mb 0.00 in0.0 mm 0.00 in0.0 mm 0.00 in0.0 mm
12:30 PM 64.6°F18.1°C 55.4°F13.0°C 72% 1.0 mph E1.6 kmh E 4.0 mph6.4 kmh 30.15 in1021.0 mb 0.00 in0.0 mm 0.00 in0.0 mm 0.00 in0.0 mm
12:35 PM 64.5°F18.1°C 55.3°F12.9°C 72% 1.0 mph SE1.6 kmh SE 4.0 mph6.4 kmh 30.16 in1021.3 mb 0.00 in0.0 mm 0.00 in0.0 mm 0.00 in0.0 mm
12:40 PM 64.5°F18.1°C 55.3°F12.9°C 72% 1.0 mph S1.6 kmh S 4.0 mph6.4 kmh 30.15 in1021.0 mb 0.00 in0.0 mm 0.00 in0.0 mm 0.00 in0.0 mm
12:45 PM 64.5°F18.1°C 55.7°F13.2°C 73% 1.0 mph SSW1.6 kmh SSW 3.0 mph4.8 kmh 30.15 in1021.0 mb 0.00 in0.0 mm 0.00 in0.0 mm 0.00 in0.0 mm
12:50 PM 64.3°F17.9°C 55.5°F13.1°C 73% 1.0 mph SW1.6 kmh SW 3.0 mph4.8 kmh 30.15 in1021.0 mb 0.00 in0.0 mm 0.00 in0.0 mm 0.00 in0.0 mm
12:55 PM 64.1°F17.8°C 55.3°F12.9°C 73% 1.0 mph SW1.6 kmh SW 2.0 mph3.2 kmh 30.15 in1021.0 mb 0.00 in0.0 mm 0.00 in0.0 mm 0.00 in0.0 mm
01:00 PM 63.9°F17.7°C 55.4°F13.0°C 74% 1.0 mph WSW1.6 kmh WSW 2.0 mph3.2 kmh 30.15 in1021.0 mb 0.00 in0.0 mm 0.00 in0.0 mm 0.00 in0.0 mm
01:05 PM 63.8°F17.7°C 56.1°F13.4°C 76% 1.0 mph WSW1.6 kmh WSW 2.0 mph3.2 kmh 30.15 in1021.0 mb 0.00 in0.0 mm 0.00 in0.0 mm 0.00 in0.0 mm
01:10 PM 63.5°F17.5°C 56.9°F13.8°C 79% 1.0 mph W1.6 kmh W 4.0 mph6.4 kmh 30.15 in1021.0 mb 0.00 in0.0 mm 0.00 in0.0 mm 0.00 in0.0 mm
01:15 PM 63.4°F17.4°C 57.1°F13.9°C 80% 1.0 mph W1.6 kmh W 4.0 mph6.4 kmh 30.14 in1020.7 mb 0.00 in0.0 mm 0.00 in0.0 mm 0.00 in0.0 mm
01:20 PM 63.2°F17.3°C 57.3°F14.1°C 81% 1.0 mph W1.6 kmh W 3.0 mph4.8 kmh 30.14 in1020.7 mb 0.00 in0.0 mm 0.00 in0.0 mm 0.00 in0.0 mm
01:25 PM 63.1°F17.3°C 57.9°F14.4°C 83% 1.0 mph WNW1.6 kmh WNW 2.0 mph3.2 kmh 30.14 in1020.7 mb 0.00 in0.0 mm 0.00 in0.0 mm 0.00 in0.0 mm
01:30 PM 62.8°F17.1°C 57.6°F14.2°C 83% 1.0 mph WNW1.6 kmh WNW 3.0 mph4.8 kmh 30.14 in1020.7 mb 0.00 in0.0 mm 0.00 in0.0 mm 0.00 in0.0 mm
01:35 PM 62.6°F17.0°C 57.4°F14.1°C 83% 1.0 mph W1.6 kmh W 3.0 mph4.8 kmh 30.14 in1020.7 mb 0.01 in0.3 mm 0.12 in3.0 mm 0.01 in0.3 mm
01:40 PM 62.5°F16.9°C 57.3°F14.1°C 83% 1.0 mph W1.6 kmh W 2.0 mph3.2 kmh 30.14 in1020.7 mb 0.01 in0.3 mm 0.00 in0.0 mm 0.01 in0.3 mm
01:45 PM 62.3°F16.8°C 57.4°F14.1°C 84% 1.0 mph W1.6 kmh W 4.0 mph6.4 kmh 30.14 in1020.7 mb 0.01 in0.3 mm 0.00 in0.0 mm 0.01 in0.3 mm
01:50 PM 62.2°F16.8°C 57.6°F14.2°C 85% 1.0 mph W1.6 kmh W 4.0 mph6.4 kmh 30.14 in1020.7 mb 0.01 in0.3 mm 0.00 in0.0 mm 0.01 in0.3 mm
01:55 PM 62.1°F16.7°C 57.5°F14.2°C 85% 2.0 mph W3.2 kmh W 3.0 mph4.8 kmh 30.14 in1020.7 mb 0.01 in0.3 mm 0.00 in0.0 mm 0.01 in0.3 mm
02:00 PM 62.0°F16.7°C 57.8°F14.3°C 86% 2.0 mph W3.2 kmh W 2.0 mph3.2 kmh 30.14 in1020.7 mb 0.01 in0.3 mm 0.00 in0.0 mm 0.01 in0.3 mm
02:05 PM 61.9°F16.6°C 57.7°F14.3°C 86% 1.0 mph WSW1.6 kmh WSW 3.0 mph4.8 kmh 30.14 in1020.7 mb 0.01 in0.3 mm 0.00 in0.0 mm 0.01 in0.3 mm
02:10 PM 61.8°F16.6°C 57.6°F14.2°C 86% 1.0 mph WSW1.6 kmh WSW 3.0 mph4.8 kmh 30.14 in1020.7 mb 0.01 in0.3 mm 0.00 in0.0 mm 0.01 in0.3 mm
02:15 PM 61.8°F16.6°C 57.6°F14.2°C 86% 1.0 mph W1.6 kmh W 3.0 mph4.8 kmh 30.14 in1020.7 mb 0.01 in0.3 mm 0.00 in0.0 mm 0.01 in0.3 mm
02:20 PM 61.7°F16.5°C 57.5°F14.2°C 86% 1.0 mph W1.6 kmh W 2.0 mph3.2 kmh 30.13 in1020.3 mb 0.01 in0.3 mm 0.00 in0.0 mm 0.01 in0.3 mm
02:25 PM 61.7°F16.5°C 57.5°F14.2°C 86% 1.0 mph W1.6 kmh W 3.0 mph4.8 kmh 30.13 in1020.3 mb 0.01 in0.3 mm 0.00 in0.0 mm 0.01 in0.3 mm
02:30 PM 61.8°F16.6°C 57.6°F14.2°C 86% 1.0 mph W1.6 kmh W 3.0 mph4.8 kmh 30.13 in1020.3 mb 0.01 in0.3 mm 0.00 in0.0 mm 0.01 in0.3 mm
02:35 PM 61.8°F16.6°C 57.2°F14.0°C 85% 1.0 mph WNW1.6 kmh WNW 3.0 mph4.8 kmh 30.13 in1020.3 mb 0.00 in0.0 mm 0.00 in0.0 mm 0.01 in0.3 mm
02:40 PM 61.8°F16.6°C 57.2°F14.0°C 85% 1.0 mph WNW1.6 kmh WNW 4.0 mph6.4 kmh 30.14 in1020.7 mb 0.00 in0.0 mm 0.00 in0.0 mm 0.01 in0.3 mm
02:45 PM 61.9°F16.6°C 57.3°F14.1°C 85% 1.0 mph NW1.6 kmh NW 4.0 mph6.4 kmh 30.14 in1020.7 mb 0.00 in0.0 mm 0.00 in0.0 mm 0.01 in0.3 mm
02:50 PM 61.9°F16.6°C 57.7°F14.3°C 86% 1.0 mph W1.6 kmh W 5.0 mph8.0 kmh 30.14 in1020.7 mb 0.00 in0.0 mm 0.00 in0.0 mm 0.01 in0.3 mm
02:55 PM 61.9°F16.6°C 57.7°F14.3°C 86% 2.0 mph WSW3.2 kmh WSW 5.0 mph8.0 kmh 30.14 in1020.7 mb 0.00 in0.0 mm 0.00 in0.0 mm 0.01 in0.3 mm
03:00 PM 61.9°F16.6°C 57.7°F14.3°C 86% 2.0 mph WSW3.2 kmh WSW 5.0 mph8.0 kmh 30.13 in1020.3 mb 0.00 in0.0 mm 0.00 in0.0 mm 0.01 in0.3 mm
03:05 PM 61.8°F16.6°C 57.6°F14.2°C 86% 2.0 mph WSW3.2 kmh WSW 6.0 mph9.7 kmh 30.13 in1020.3 mb 0.00 in0.0 mm 0.00 in0.0 mm 0.01 in0.3 mm
03:10 PM 61.8°F16.6°C 57.6°F14.2°C 86% 2.0 mph WSW3.2 kmh WSW 6.0 mph9.7 kmh 30.14 in1020.7 mb 0.00 in0.0 mm 0.00 in0.0 mm 0.01 in0.3 mm
03:15 PM 61.8°F16.6°C 57.6°F14.2°C 86% 2.0 mph WSW3.2 kmh WSW 4.0 mph6.4 kmh 30.14 in1020.7 mb 0.00 in0.0 mm 0.00 in0.0 mm 0.01 in0.3 mm
03:20 PM 61.7°F16.5°C 57.5°F14.2°C 86% 2.0 mph W3.2 kmh W 5.0 mph8.0 kmh 30.14 in1020.7 mb 0.00 in0.0 mm 0.00 in0.0 mm 0.01 in0.3 mm
03:25 PM 61.5°F16.4°C 57.3°F14.1°C 86% 2.0 mph W3.2 kmh W 5.0 mph8.0 kmh 30.14 in1020.7 mb 0.00 in0.0 mm 0.00 in0.0 mm 0.01 in0.3 mm
03:30 PM 61.4°F16.3°C 57.5°F14.2°C 87% 2.0 mph W3.2 kmh W 4.0 mph6.4 kmh 30.14 in1020.7 mb 0.00 in0.0 mm 0.00 in0.0 mm 0.01 in0.3 mm
03:35 PM 61.3°F16.3°C 57.4°F14.1°C 87% 2.0 mph WNW3.2 kmh WNW 4.0 mph6.4 kmh 30.14 in1020.7 mb 0.00 in0.0 mm 0.00 in0.0 mm 0.01 in0.3 mm
03:40 PM 61.2°F16.2°C 57.3°F14.1°C 87% 2.0 mph WNW3.2 kmh WNW 5.0 mph8.0 kmh 30.14 in1020.7 mb 0.00 in0.0 mm 0.00 in0.0 mm 0.01 in0.3 mm
03:45 PM 61.2°F16.2°C 57.3°F14.1°C 87% 2.0 mph W3.2 kmh W 5.0 mph8.0 kmh 30.14 in1020.7 mb 0.00 in0.0 mm 0.00 in0.0 mm 0.01 in0.3 mm
03:50 PM 61.1°F16.2°C 57.2°F14.0°C 87% 1.0 mph WSW1.6 kmh WSW 4.0 mph6.4 kmh 30.14 in1020.7 mb 0.00 in0.0 mm 0.00 in0.0 mm 0.01 in0.3 mm
03:55 PM 61.0°F16.1°C 57.4°F14.1°C 88% 1.0 mph WSW1.6 kmh WSW 4.0 mph6.4 kmh 30.14 in1020.7 mb 0.00 in0.0 mm 0.00 in0.0 mm 0.01 in0.3 mm
04:00 PM 61.0°F16.1°C 57.4°F14.1°C 88% 1.0 mph W1.6 kmh W 4.0 mph6.4 kmh 30.14 in1020.7 mb 0.00 in0.0 mm 0.00 in0.0 mm 0.01 in0.3 mm
04:05 PM 60.9°F16.1°C 57.3°F14.1°C 88% 2.0 mph WSW3.2 kmh WSW 5.0 mph8.0 kmh 30.14 in1020.7 mb 0.00 in0.0 mm 0.00 in0.0 mm 0.01 in0.3 mm
04:10 PM 60.8°F16.0°C 57.2°F14.0°C 88% 2.0 mph WSW3.2 kmh WSW 5.0 mph8.0 kmh 30.15 in1021.0 mb 0.00 in0.0 mm 0.00 in0.0 mm 0.01 in0.3 mm
04:15 PM 60.8°F16.0°C 57.2°F14.0°C 88% 2.0 mph WSW3.2 kmh WSW 6.0 mph9.7 kmh 30.15 in1021.0 mb 0.00 in0.0 mm 0.00 in0.0 mm 0.01 in0.3 mm
04:20 PM 60.7°F15.9°C 57.1°F13.9°C 88% 3.0 mph WSW4.8 kmh WSW 6.0 mph9.7 kmh 30.15 in1021.0 mb 0.00 in0.0 mm 0.00 in0.0 mm 0.01 in0.3 mm
04:25 PM 60.6°F15.9°C 57.0°F13.9°C 88% 2.0 mph WSW3.2 kmh WSW 5.0 mph8.0 kmh 30.15 in1021.0 mb 0.00 in0.0 mm 0.00 in0.0 mm 0.01 in0.3 mm
04:30 PM 60.5°F15.8°C 57.2°F14.0°C 89% 2.0 mph WSW3.2 kmh WSW 5.0 mph8.0 kmh 30.15 in1021.0 mb 0.00 in0.0 mm 0.00 in0.0 mm 0.01 in0.3 mm
04:35 PM 60.4°F15.8°C 57.1°F13.9°C 89% 2.0 mph WSW3.2 kmh WSW 6.0 mph9.7 kmh 30.15 in1021.0 mb 0.00 in0.0 mm 0.00 in0.0 mm 0.01 in0.3 mm
04:40 PM 60.3°F15.7°C 57.0°F13.9°C 89% 3.0 mph WSW4.8 kmh WSW 6.0 mph9.7 kmh 30.15 in1021.0 mb 0.00 in0.0 mm 0.00 in0.0 mm 0.01 in0.3 mm
04:45 PM 60.2°F15.7°C 56.9°F13.8°C 89% 3.0 mph WSW4.8 kmh WSW 5.0 mph8.0 kmh 30.15 in1021.0 mb 0.00 in0.0 mm 0.00 in0.0 mm 0.01 in0.3 mm
04:50 PM 60.1°F15.6°C 56.8°F13.8°C 89% 3.0 mph WSW4.8 kmh WSW 5.0 mph8.0 kmh 30.15 in1021.0 mb 0.00 in0.0 mm 0.00 in0.0 mm 0.01 in0.3 mm
04:55 PM 60.0°F15.6°C 56.7°F13.7°C 89% 2.0 mph WSW3.2 kmh WSW 4.0 mph6.4 kmh 30.15 in1021.0 mb 0.00 in0.0 mm 0.00 in0.0 mm 0.01 in0.3 mm
05:00 PM 59.9°F15.5°C 56.6°F13.7°C 89% 2.0 mph WSW3.2 kmh WSW 4.0 mph6.4 kmh 30.15 in1021.0 mb 0.00 in0.0 mm 0.00 in0.0 mm 0.01 in0.3 mm
05:05 PM 59.7°F15.4°C 56.5°F13.6°C 89% 2.0 mph WSW3.2 kmh WSW 4.0 mph6.4 kmh 30.15 in1021.0 mb 0.00 in0.0 mm 0.00 in0.0 mm 0.01 in0.3 mm
05:10 PM 59.6°F15.3°C 56.4°F13.6°C 89% 2.0 mph WSW3.2 kmh WSW 4.0 mph6.4 kmh 30.15 in1021.0 mb 0.00 in0.0 mm 0.00 in0.0 mm 0.01 in0.3 mm
05:15 PM 59.5°F15.3°C 56.3°F13.5°C 89% 2.0 mph WSW3.2 kmh WSW 4.0 mph6.4 kmh 30.15 in1021.0 mb 0.00 in0.0 mm 0.00 in0.0 mm 0.01 in0.3 mm
05:20 PM 59.5°F15.3°C 56.3°F13.5°C 89% 2.0 mph W3.2 kmh W 3.0 mph4.8 kmh 30.16 in1021.3 mb 0.00 in0.0 mm 0.00 in0.0 mm 0.01 in0.3 mm
05:25 PM 59.4°F15.2°C 56.5°F13.6°C 90% 1.0 mph W1.6 kmh W 3.0 mph4.8 kmh 30.16 in1021.3 mb 0.00 in0.0 mm 0.00 in0.0 mm 0.01 in0.3 mm
05:30 PM 59.4°F15.2°C 56.5°F13.6°C 90% 1.0 mph W1.6 kmh W 4.0 mph6.4 kmh 30.16 in1021.3 mb 0.00 in0.0 mm 0.00 in0.0 mm 0.01 in0.3 mm
05:35 PM 59.3°F15.2°C 56.4°F13.6°C 90% 1.0 mph W1.6 kmh W 4.0 mph6.4 kmh 30.16 in1021.3 mb 0.00 in0.0 mm 0.00 in0.0 mm 0.01 in0.3 mm
05:40 PM 59.3°F15.2°C 56.7°F13.7°C 91% 1.0 mph WSW1.6 kmh WSW 4.0 mph6.4 kmh 30.17 in1021.7 mb 0.00 in0.0 mm 0.00 in0.0 mm 0.01 in0.3 mm
05:45 PM 59.2°F15.1°C 56.6°F13.7°C 91% 1.0 mph WSW1.6 kmh WSW 4.0 mph6.4 kmh 30.16 in1021.3 mb 0.00 in0.0 mm 0.00 in0.0 mm 0.01 in0.3 mm
05:50 PM 59.2°F15.1°C 56.6°F13.7°C 91% 1.0 mph WSW1.6 kmh WSW 4.0 mph6.4 kmh 30.16 in1021.3 mb 0.00 in0.0 mm 0.00 in0.0 mm 0.01 in0.3 mm
05:55 PM 59.2°F15.1°C 56.6°F13.7°C 91% 1.0 mph WSW1.6 kmh WSW 3.0 mph4.8 kmh 30.16 in1021.3 mb 0.00 in0.0 mm 0.00 in0.0 mm 0.01 in0.3 mm
06:00 PM 59.2°F15.1°C 56.6°F13.7°C 91% 1.0 mph WSW1.6 kmh WSW 3.0 mph4.8 kmh 30.16 in1021.3 mb 0.00 in0.0 mm 0.00 in0.0 mm 0.01 in0.3 mm
06:05 PM 59.1°F15.1°C 56.5°F13.6°C 91% 1.0 mph WSW1.6 kmh WSW 3.0 mph4.8 kmh 30.16 in1021.3 mb 0.00 in0.0 mm 0.00 in0.0 mm 0.01 in0.3 mm
06:10 PM 59.1°F15.1°C 56.5°F13.6°C 91% 2.0 mph WSW3.2 kmh WSW 3.0 mph4.8 kmh 30.16 in1021.3 mb 0.00 in0.0 mm 0.00 in0.0 mm 0.01 in0.3 mm
06:15 PM 59.1°F15.1°C 56.5°F13.6°C 91% 2.0 mph WSW3.2 kmh WSW 4.0 mph6.4 kmh 30.17 in1021.7 mb 0.00 in0.0 mm 0.00 in0.0 mm 0.01 in0.3 mm
06:20 PM 59.1°F15.1°C 56.8°F13.8°C 92% 2.0 mph WSW3.2 kmh WSW 5.0 mph8.0 kmh 30.17 in1021.7 mb 0.00 in0.0 mm 0.00 in0.0 mm 0.01 in0.3 mm
06:25 PM 59.1°F15.1°C 56.8°F13.8°C 92% 2.0 mph WSW3.2 kmh WSW 5.0 mph8.0 kmh 30.17 in1021.7 mb 0.00 in0.0 mm 0.00 in0.0 mm 0.01 in0.3 mm
06:30 PM 59.1°F15.1°C 56.8°F13.8°C 92% 1.0 mph WSW1.6 kmh WSW 2.0 mph3.2 kmh 30.18 in1022.0 mb 0.00 in0.0 mm 0.00 in0.0 mm 0.01 in0.3 mm
06:35 PM 59.1°F15.1°C 56.8°F13.8°C 92% 1.0 mph WSW1.6 kmh WSW 4.0 mph6.4 kmh 30.18 in1022.0 mb 0.00 in0.0 mm 0.00 in0.0 mm 0.01 in0.3 mm
06:40 PM 59.1°F15.1°C 56.8°F13.8°C 92% 1.0 mph WSW1.6 kmh WSW 4.0 mph6.4 kmh 30.18 in1022.0 mb 0.00 in0.0 mm 0.00 in0.0 mm 0.01 in0.3 mm
06:45 PM 59.1°F15.1°C 56.8°F13.8°C 92% 1.0 mph WSW1.6 kmh WSW 4.0 mph6.4 kmh 30.18 in1022.0 mb 0.00 in0.0 mm 0.00 in0.0 mm 0.01 in0.3 mm
06:50 PM 59.1°F15.1°C 56.8°F13.8°C 92% 1.0 mph WSW1.6 kmh WSW 4.0 mph6.4 kmh 30.18 in1022.0 mb 0.00 in0.0 mm 0.00 in0.0 mm 0.01 in0.3 mm
06:55 PM 59.1°F15.1°C 56.8°F13.8°C 92% 1.0 mph WSW1.6 kmh WSW 3.0 mph4.8 kmh 30.18 in1022.0 mb 0.00 in0.0 mm 0.00 in0.0 mm 0.01 in0.3 mm
07:00 PM 59.1°F15.1°C 56.8°F13.8°C 92% 1.0 mph WSW1.6 kmh WSW 3.0 mph4.8 kmh 30.18 in1022.0 mb 0.00 in0.0 mm 0.00 in0.0 mm 0.01 in0.3 mm
07:05 PM 59.1°F15.1°C 56.8°F13.8°C 92% 1.0 mph WSW1.6 kmh WSW 2.0 mph3.2 kmh 30.18 in1022.0 mb 0.00 in0.0 mm 0.00 in0.0 mm 0.01 in0.3 mm
07:10 PM 59.1°F15.1°C 56.8°F13.8°C 92% 1.0 mph WSW1.6 kmh WSW 1.0 mph1.6 kmh 30.18 in1022.0 mb 0.00 in0.0 mm 0.00 in0.0 mm 0.01 in0.3 mm
07:15 PM 59.1°F15.1°C 56.8°F13.8°C 92% Calm Calm 2.0 mph3.2 kmh 30.18 in1022.0 mb 0.00 in0.0 mm 0.00 in0.0 mm 0.01 in0.3 mm
07:20 PM 59.0°F15.0°C 56.7°F13.7°C 92% Calm Calm 2.0 mph3.2 kmh 30.18 in1022.0 mb 0.00 in0.0 mm 0.00 in0.0 mm 0.01 in0.3 mm
07:25 PM 59.0°F15.0°C 56.7°F13.7°C 92% Calm Calm 1.0 mph1.6 kmh 30.18 in1022.0 mb 0.00 in0.0 mm 0.00 in0.0 mm 0.01 in0.3 mm
07:30 PM 59.0°F15.0°C 56.7°F13.7°C 92% Calm Calm 1.0 mph1.6 kmh 30.19 in1022.4 mb 0.00 in0.0 mm 0.00 in0.0 mm 0.01 in0.3 mm
07:35 PM 59.0°F15.0°C 56.7°F13.7°C 92% Calm Calm 1.0 mph1.6 kmh 30.19 in1022.4 mb 0.00 in0.0 mm 0.00 in0.0 mm 0.01 in0.3 mm
07:40 PM 59.0°F15.0°C 56.7°F13.7°C 92% Calm Calm -- 30.19 in1022.4 mb 0.00 in0.0 mm 0.00 in0.0 mm 0.01 in0.3 mm
07:45 PM 59.0°F15.0°C 56.7°F13.7°C 92% Calm Calm 1.0 mph1.6 kmh 30.19 in1022.4 mb 0.00 in0.0 mm 0.00 in0.0 mm 0.01 in0.3 mm
07:50 PM 59.0°F15.0°C 56.7°F13.7°C 92% Calm Calm 1.0 mph1.6 kmh 30.19 in1022.4 mb 0.00 in0.0 mm 0.00 in0.0 mm 0.01 in0.3 mm
07:55 PM 58.9°F14.9°C 56.6°F13.7°C 92% Calm Calm 3.0 mph4.8 kmh 30.18 in1022.0 mb 0.02 in0.5 mm 0.24 in6.1 mm 0.03 in0.8 mm
08:00 PM 59.0°F15.0°C 56.7°F13.7°C 92% Calm Calm 3.0 mph4.8 kmh 30.18 in1022.0 mb 0.03 in0.8 mm 0.01 in0.3 mm 0.04 in1.0 mm
08:05 PM 58.9°F14.9°C 56.9°F13.8°C 93% 1.0 mph SW1.6 kmh SW 2.0 mph3.2 kmh 30.18 in1022.0 mb 0.03 in0.8 mm 0.00 in0.0 mm 0.04 in1.0 mm
08:10 PM 58.9°F14.9°C 56.6°F13.7°C 92% 1.0 mph SW1.6 kmh SW 2.0 mph3.2 kmh 30.18 in1022.0 mb 0.03 in0.8 mm 0.00 in0.0 mm 0.04 in1.0 mm
08:15 PM 58.8°F14.9°C 56.5°F13.6°C 92% Calm Calm 2.0 mph3.2 kmh 30.19 in1022.4 mb 0.03 in0.8 mm 0.00 in0.0 mm 0.04 in1.0 mm
08:20 PM 58.7°F14.8°C 56.4°F13.6°C 92% 1.0 mph SW1.6 kmh SW 2.0 mph3.2 kmh 30.19 in1022.4 mb 0.03 in0.8 mm 0.00 in0.0 mm 0.04 in1.0 mm
08:25 PM 58.6°F14.8°C 56.3°F13.5°C 92% 1.0 mph SW1.6 kmh SW 2.0 mph3.2 kmh 30.19 in1022.4 mb 0.03 in0.8 mm 0.00 in0.0 mm 0.04 in1.0 mm
08:30 PM 58.6°F14.8°C 56.3°F13.5°C 92% Calm Calm 1.0 mph1.6 kmh 30.19 in1022.4 mb 0.03 in0.8 mm 0.00 in0.0 mm 0.04 in1.0 mm
08:35 PM 58.5°F14.7°C 56.2°F13.4°C 92% Calm Calm 1.0 mph1.6 kmh 30.19 in1022.4 mb 0.03 in0.8 mm 0.00 in0.0 mm 0.04 in1.0 mm
08:40 PM 58.4°F14.7°C 56.1°F13.4°C 92% Calm Calm 1.0 mph1.6 kmh 30.19 in1022.4 mb 0.03 in0.8 mm 0.00 in0.0 mm 0.04 in1.0 mm
08:45 PM 58.3°F14.6°C 56.0°F13.3°C 92% Calm Calm 2.0 mph3.2 kmh 30.19 in1022.4 mb 0.03 in0.8 mm 0.00 in0.0 mm 0.04 in1.0 mm
08:50 PM 58.2°F14.6°C 55.9°F13.3°C 92% 1.0 mph SW1.6 kmh SW 2.0 mph3.2 kmh 30.19 in1022.4 mb 0.03 in0.8 mm 0.00 in0.0 mm 0.04 in1.0 mm
08:55 PM 58.0°F14.4°C 55.7°F13.2°C 92% Calm Calm 1.0 mph1.6 kmh 30.19 in1022.4 mb 0.01 in0.3 mm 0.00 in0.0 mm 0.04 in1.0 mm
09:00 PM 57.9°F14.4°C 55.9°F13.3°C 93% Calm Calm 2.0 mph3.2 kmh 30.18 in1022.0 mb 0.00 in0.0 mm 0.00 in0.0 mm 0.04 in1.0 mm
09:05 PM 57.8°F14.3°C 55.8°F13.2°C 93% Calm Calm 2.0 mph3.2 kmh 30.19 in1022.4 mb 0.00 in0.0 mm 0.00 in0.0 mm 0.04 in1.0 mm
09:10 PM 57.7°F14.3°C 55.7°F13.2°C 93% 1.0 mph S1.6 kmh S 2.0 mph3.2 kmh 30.19 in1022.4 mb 0.00 in0.0 mm 0.00 in0.0 mm 0.04 in1.0 mm
09:15 PM 57.6°F14.2°C 55.6°F13.1°C 93% 1.0 mph SE1.6 kmh SE 2.0 mph3.2 kmh 30.19 in1022.4 mb 0.00 in0.0 mm 0.00 in0.0 mm 0.04 in1.0 mm
09:20 PM 57.5°F14.2°C 55.5°F13.1°C 93% 1.0 mph SE1.6 kmh SE 2.0 mph3.2 kmh 30.19 in1022.4 mb 0.00 in0.0 mm 0.00 in0.0 mm 0.04 in1.0 mm
09:25 PM 57.5°F14.2°C 55.5°F13.1°C 93% 1.0 mph SE1.6 kmh SE 2.0 mph3.2 kmh 30.19 in1022.4 mb 0.00 in0.0 mm 0.00 in0.0 mm 0.04 in1.0 mm
09:30 PM 57.4°F14.1°C 55.4°F13.0°C 93% 1.0 mph SE1.6 kmh SE 2.0 mph3.2 kmh 30.19 in1022.4 mb 0.00 in0.0 mm 0.00 in0.0 mm 0.04 in1.0 mm
09:35 PM 57.3°F14.1°C 55.3°F12.9°C 93% Calm Calm 1.0 mph1.6 kmh 30.19 in1022.4 mb 0.00 in0.0 mm 0.00 in0.0 mm 0.04 in1.0 mm
09:40 PM 57.3°F14.1°C 55.3°F12.9°C 93% Calm Calm -- 30.19 in1022.4 mb 0.00 in0.0 mm 0.00 in0.0 mm 0.04 in1.0 mm
09:45 PM 57.1°F13.9°C 55.1°F12.8°C 93% Calm Calm 2.0 mph3.2 kmh 30.19 in1022.4 mb 0.00 in0.0 mm 0.00 in0.0 mm 0.04 in1.0 mm
09:50 PM 57.1°F13.9°C 55.1°F12.8°C 93% Calm Calm 3.0 mph4.8 kmh 30.20 in1022.7 mb 0.00 in0.0 mm 0.00 in0.0 mm 0.04 in1.0 mm
09:55 PM 57.0°F13.9°C 55.0°F12.8°C 93% 1.0 mph NE1.6 kmh NE 3.0 mph4.8 kmh 30.20 in1022.7 mb 0.00 in0.0 mm 0.00 in0.0 mm 0.04 in1.0 mm
10:00 PM 56.9°F13.8°C 54.9°F12.7°C 93% 1.0 mph NE1.6 kmh NE 2.0 mph3.2 kmh 30.20 in1022.7 mb 0.00 in0.0 mm 0.00 in0.0 mm 0.04 in1.0 mm
10:05 PM 56.9°F13.8°C 54.9°F12.7°C 93% 1.0 mph NE1.6 kmh NE 2.0 mph3.2 kmh 30.21 in1023.0 mb 0.00 in0.0 mm 0.00 in0.0 mm 0.04 in1.0 mm
10:10 PM 56.9°F13.8°C 54.9°F12.7°C 93% 1.0 mph NE1.6 kmh NE 2.0 mph3.2 kmh 30.21 in1023.0 mb 0.00 in0.0 mm 0.00 in0.0 mm 0.04 in1.0 mm
10:15 PM 56.8°F13.8°C 54.8°F12.7°C 93% 1.0 mph NNE1.6 kmh NNE 1.0 mph1.6 kmh 30.21 in1023.0 mb 0.00 in0.0 mm 0.00 in0.0 mm 0.04 in1.0 mm
10:20 PM 56.7°F13.7°C 54.7°F12.6°C 93% Calm Calm 1.0 mph1.6 kmh 30.21 in1023.0 mb 0.00 in0.0 mm 0.00 in0.0 mm 0.04 in1.0 mm
10:25 PM 56.7°F13.7°C 54.7°F12.6°C 93% Calm Calm 1.0 mph1.6 kmh 30.21 in1023.0 mb 0.00 in0.0 mm 0.00 in0.0 mm 0.04 in1.0 mm
10:30 PM 56.6°F13.7°C 54.9°F12.7°C 94% Calm Calm 1.0 mph1.6 kmh 30.20 in1022.7 mb 0.00 in0.0 mm 0.00 in0.0 mm 0.04 in1.0 mm
10:35 PM 56.5°F13.6°C 54.5°F12.5°C 93% Calm Calm 1.0 mph1.6 kmh 30.20 in1022.7 mb 0.00 in0.0 mm 0.00 in0.0 mm 0.04 in1.0 mm
10:40 PM 56.4°F13.6°C 54.4°F12.4°C 93% Calm Calm 3.0 mph4.8 kmh 30.20 in1022.7 mb 0.00 in0.0 mm 0.00 in0.0 mm 0.04 in1.0 mm
10:45 PM 56.5°F13.6°C 54.8°F12.7°C 94% 1.0 mph ENE1.6 kmh ENE 3.0 mph4.8 kmh 30.20 in1022.7 mb 0.00 in0.0 mm 0.00 in0.0 mm 0.04 in1.0 mm
10:50 PM 56.4°F13.6°C 54.7°F12.6°C 94% 1.0 mph E1.6 kmh E 3.0 mph4.8 kmh 30.20 in1022.7 mb 0.00 in0.0 mm 0.00 in0.0 mm 0.04 in1.0 mm
10:55 PM 56.5°F13.6°C 54.8°F12.7°C 94% 1.0 mph E1.6 kmh E 2.0 mph3.2 kmh 30.19 in1022.4 mb 0.00 in0.0 mm 0.00 in0.0 mm 0.04 in1.0 mm
11:00 PM 56.5°F13.6°C 54.8°F12.7°C 94% Calm Calm 2.0 mph3.2 kmh 30.19 in1022.4 mb 0.00 in0.0 mm 0.00 in0.0 mm 0.04 in1.0 mm
11:05 PM 56.6°F13.7°C 54.9°F12.7°C 94% Calm Calm 2.0 mph3.2 kmh 30.19 in1022.4 mb 0.00 in0.0 mm 0.00 in0.0 mm 0.04 in1.0 mm
11:10 PM 56.6°F13.7°C 55.2°F12.9°C 95% 1.0 mph E1.6 kmh E 2.0 mph3.2 kmh 30.19 in1022.4 mb 0.00 in0.0 mm 0.00 in0.0 mm 0.04 in1.0 mm
11:15 PM 56.7°F13.7°C 55.3°F12.9°C 95% 1.0 mph E1.6 kmh E 2.0 mph3.2 kmh 30.20 in1022.7 mb 0.00 in0.0 mm 0.00 in0.0 mm 0.04 in1.0 mm
11:20 PM 56.7°F13.7°C 55.3°F12.9°C 95% 1.0 mph E1.6 kmh E 1.0 mph1.6 kmh 30.20 in1022.7 mb 0.00 in0.0 mm 0.00 in0.0 mm 0.04 in1.0 mm
11:25 PM 56.7°F13.7°C 55.3°F12.9°C 95% Calm Calm 1.0 mph1.6 kmh 30.20 in1022.7 mb 0.00 in0.0 mm 0.00 in0.0 mm 0.04 in1.0 mm
11:30 PM 56.6°F13.7°C 55.2°F12.9°C 95% Calm Calm 1.0 mph1.6 kmh 30.20 in1022.7 mb 0.00 in0.0 mm 0.00 in0.0 mm 0.04 in1.0 mm
11:35 PM 56.5°F13.6°C 54.8°F12.7°C 94% Calm Calm 1.0 mph1.6 kmh 30.20 in1022.7 mb 0.00 in0.0 mm 0.00 in0.0 mm 0.04 in1.0 mm
11:40 PM 56.2°F13.4°C 54.5°F12.5°C 94% Calm Calm 2.0 mph3.2 kmh 30.20 in1022.7 mb 0.00 in0.0 mm 0.00 in0.0 mm 0.04 in1.0 mm
11:45 PM 56.1°F13.4°C 54.4°F12.4°C 94% Calm Calm 2.0 mph3.2 kmh 30.20 in1022.7 mb 0.00 in0.0 mm 0.00 in0.0 mm 0.04 in1.0 mm
11:50 PM 56.0°F13.3°C 54.3°F12.4°C 94% Calm Calm 1.0 mph1.6 kmh 30.20 in1022.7 mb 0.00 in0.0 mm 0.00 in0.0 mm 0.04 in1.0 mm
11:55 PM 55.8°F13.2°C 54.1°F12.3°C 94% Calm Calm 1.0 mph1.6 kmh 30.19 in1022.4 mb 0.00 in0.0 mm 0.00 in0.0 mm 0.04 in1.0 mm